Terminal Aerodrome Forecast
Issued by NWS Green Bay, WI

Home | Current Version | Previous Version | Text Only | Print | Product List | Glossary On
Versions: 1 2 3 4 5 6 7 8 9 10 11 12 13 14 15
000
FTUS43 KGRB 262325
TAFGRB
TAF
KGRB 262325Z 2700/2724 22009G16KT P6SM VCSH SCT025 OVC040
      TEMPO 2700/2704 BKN025
     FM270400 28006KT P6SM VCSH OVC015
     FM270600 34006KT 5SM -RA BR OVC008
     FM270900 30008KT 4SM RA BR OVC006
      TEMPO 2710/2714 2SM RA BR OVC004
     FM271700 26011G19KT 4SM -RA OVC009
     FM272000 26013G23KT P6SM OVC015
     FM272200 25012G20KT P6SM OVC025=

USA.gov is the U.S. government's official web portal to all federal, state and local government web resources and services.